Time;durP1;ratioP1;P1;durP2;ratioP2;P2;SDS_P1;SDS_P2;PMS_P1;PMS_P2;Temp;Humidity;BMP_temperature;BMP_pressure;BME280_temperature;BME280_humidity;BME280_pressure;Samples;Min_cycle;Max_cycle;Signal;HPM_P1;HPM_P2
2021/04/11 00:00:53;;;;;;;0.75;0.52;;;4.20;86.60;;;;;;4897876;29;20479;-74
2021/04/11 00:03:22;;;;;;;0.77;0.60;;;4.20;86.60;;;;;;4916949;29;20139;-74
2021/04/11 00:05:49;;;;;;;0.65;0.45;;;4.20;86.70;;;;;;4899723;29;20484;-74
2021/04/11 00:08:16;;;;;;;0.60;0.57;;;4.20;86.60;;;;;;4900112;29;20455;-74
2021/04/11 00:10:45;;;;;;;0.47;0.38;;;4.20;86.60;;;;;;4900168;29;20032;-73
2021/04/11 00:13:19;;;;;;;0.50;0.43;;;4.20;86.70;;;;;;4916799;29;20040;-74
2021/04/11 00:15:46;;;;;;;0.50;0.50;;;4.10;86.70;;;;;;4900038;29;20092;-74
2021/04/11 00:18:12;;;;;;;0.60;0.38;;;4.20;86.60;;;;;;4899509;29;20032;-73
2021/04/11 00:20:38;;;;;;;0.57;0.55;;;4.20;86.60;;;;;;4916883;29;20044;-73
2021/04/11 00:23:05;;;;;;;0.73;0.40;;;4.10;86.60;;;;;;4916530;29;20079;-73
2021/04/11 00:25:34;;;;;;;0.47;0.40;;;4.10;86.70;;;;;;4917033;29;20074;-73
2021/04/11 00:28:01;;;;;;;0.70;0.60;;;4.10;86.70;;;;;;4916360;29;20048;-74
2021/04/11 00:30:27;;;;;;;0.32;0.32;;;4.10;86.80;;;;;;4916855;29;20044;-73
2021/04/11 00:32:56;;;;;;;0.80;0.60;;;4.10;86.70;;;;;;4883576;29;20498;-74
2021/04/11 00:35:23;;;;;;;0.70;0.60;;;4.10;86.70;;;;;;4917027;29;20520;-73
2021/04/11 00:37:49;;;;;;;0.90;0.60;;;4.10;86.70;;;;;;4884649;29;20127;-73
2021/04/11 00:40:22;;;;;;;0.70;0.50;;;4.10;86.70;;;;;;4916478;29;20131;-73
2021/04/11 00:42:56;;;;;;;0.80;0.60;;;4.10;86.80;;;;;;4883122;29;20372;-73
2021/04/11 00:45:33;;;;;;;0.40;0.40;;;4.00;86.70;;;;;;4916111;29;20033;-73
2021/04/11 00:48:01;;;;;;;1.10;0.60;;;4.10;86.90;;;;;;4900072;29;20051;-73
2021/04/11 00:50:28;;;;;;;0.32;0.22;;;4.00;86.80;;;;;;4916085;29;20032;-73
2021/04/11 00:52:54;;;;;;;0.50;0.38;;;4.00;86.80;;;;;;4883407;29;20655;-73
2021/04/11 00:55:22;;;;;;;0.40;0.40;;;4.00;86.80;;;;;;4916479;29;20072;-73
2021/04/11 00:57:50;;;;;;;0.52;0.50;;;4.00;86.80;;;;;;4899027;29;20040;-74
2021/04/11 01:00:17;;;;;;;0.40;0.38;;;4.00;86.90;;;;;;4916121;29;20375;-73
2021/04/11 01:02:44;;;;;;;0.60;0.60;;;3.90;86.90;;;;;;4916010;29;20135;-73
2021/04/11 01:05:20;;;;;;;0.65;0.40;;;3.90;86.90;;;;;;4916218;29;20124;-73
2021/04/11 01:07:48;;;;;;;0.30;0.30;;;3.90;86.90;;;;;;4916169;29;20466;-73
2021/04/11 01:10:20;;;;;;;0.90;0.68;;;3.90;86.90;;;;;;4915915;29;20036;-74
2021/04/11 01:12:46;;;;;;;0.38;0.38;;;3.80;86.90;;;;;;4899554;29;20490;-73
2021/04/11 01:15:23;;;;;;;0.50;0.50;;;3.90;87.00;;;;;;4916311;29;20047;-73
2021/04/11 01:17:49;;;;;;;0.65;0.47;;;3.90;87.00;;;;;;4897124;29;20424;-73
2021/04/11 01:20:18;;;;;;;1.35;0.65;;;3.80;86.90;;;;;;4915822;29;20083;-73
2021/04/11 01:23:23;;;;;;;0.70;0.60;;;3.80;87.00;;;;;;4883270;29;20032;-73
2021/04/11 01:25:51;;;;;;;0.20;0.20;;;3.80;87.10;;;;;;4915315;29;20391;-74
2021/04/11 01:28:23;;;;;;;1.08;0.80;;;3.80;87.10;;;;;;4897573;29;20459;-74
2021/04/11 01:30:53;;;;;;;1.30;0.70;;;3.70;87.10;;;;;;4881976;29;20040;-73
2021/04/11 01:33:21;;;;;;;1.08;0.77;;;3.80;87.00;;;;;;4897473;29;20040;-73
2021/04/11 01:35:52;;;;;;;1.35;0.60;;;3.70;87.10;;;;;;4915514;29;20040;-73
2021/04/11 01:38:19;;;;;;;0.82;0.63;;;3.70;87.10;;;;;;4915627;29;20029;-73
2021/04/11 01:40:53;;;;;;;0.40;0.40;;;3.70;87.10;;;;;;4916002;29;20060;-73
2021/04/11 01:43:21;;;;;;;0.45;0.40;;;3.80;87.20;;;;;;4915573;29;20486;-73
2021/04/11 01:45:48;;;;;;;0.45;0.38;;;3.70;87.10;;;;;;4898689;29;20159;-73
2021/04/11 01:48:16;;;;;;;0.60;0.55;;;3.70;87.10;;;;;;4915935;29;20103;-74
2021/04/11 01:50:44;;;;;;;0.60;0.40;;;3.70;87.20;;;;;;4898259;29;20147;-73
2021/04/11 01:53:13;;;;;;;0.43;0.32;;;3.70;87.10;;;;;;4881746;29;20044;-73
2021/04/11 01:55:40;;;;;;;0.85;0.50;;;3.70;87.20;;;;;;4915439;29;20071;-73
2021/04/11 01:58:07;;;;;;;0.30;0.30;;;3.70;87.10;;;;;;4915560;29;20028;-73
2021/04/11 02:00:40;;;;;;;0.43;0.40;;;3.70;87.10;;;;;;4915224;29;20051;-73
2021/04/11 02:03:11;;;;;;;0.65;0.50;;;3.80;87.20;;;;;;4915363;29;20112;-73
2021/04/11 02:05:40;;;;;;;0.45;0.45;;;3.70;87.10;;;;;;4915262;29;20044;-73
2021/04/11 02:08:08;;;;;;;1.02;0.77;;;3.60;86.90;;;;;;4898401;29;20079;-73
2021/04/11 02:10:38;;;;;;;0.47;0.47;;;3.60;87.00;;;;;;4898242;29;20044;-73
2021/04/11 02:13:05;;;;;;;0.80;0.60;;;3.60;87.00;;;;;;4898172;29;20048;-74
2021/04/11 02:15:39;;;;;;;0.30;0.20;;;3.60;87.10;;;;;;4882119;29;20502;-73
2021/04/11 02:18:05;;;;;;;0.63;0.40;;;3.60;87.10;;;;;;4883102;29;20048;-74
2021/04/11 02:20:32;;;;;;;0.63;0.52;;;3.60;87.10;;;;;;4915007;29;20040;-73
2021/04/11 02:22:59;;;;;;;0.50;0.50;;;3.60;87.00;;;;;;4915106;29;20120;-73
2021/04/11 02:25:29;;;;;;;0.38;0.38;;;3.70;87.10;;;;;;4898219;29;20047;-73
2021/04/11 02:27:56;;;;;;;0.50;0.50;;;3.60;87.10;;;;;;4915024;29;20044;-73
2021/04/11 02:30:26;;;;;;;0.25;0.25;;;3.70;87.10;;;;;;4914857;29;20445;-73
2021/04/11 02:32:52;;;;;;;0.45;0.40;;;3.60;87.10;;;;;;4897906;29;20039;-74
2021/04/11 02:35:24;;;;;;;0.52;0.50;;;3.60;87.00;;;;;;4881746;29;20036;-73
2021/04/11 02:37:52;;;;;;;;;;;3.70;87.10;;;;;;4915437;29;20056;-73
2021/04/11 02:40:25;;;;;;;0.77;0.70;;;3.60;87.00;;;;;;4897977;29;20293;-73
2021/04/11 02:42:51;;;;;;;0.50;0.50;;;3.60;86.90;;;;;;4886322;29;20104;-73
2021/04/11 02:45:23;;;;;;;0.40;0.30;;;3.70;86.90;;;;;;4918243;29;20393;-73
2021/04/11 02:47:53;;;;;;;0.60;0.50;;;3.60;86.90;;;;;;4918115;29;20084;-74
2021/04/11 02:50:22;;;;;;;0.52;0.40;;;3.60;87.00;;;;;;4901932;29;20506;-73
2021/04/11 02:52:55;;;;;;;0.20;0.20;;;3.70;87.00;;;;;;4917944;29;20082;-74
2021/04/11 02:55:22;;;;;;;0.20;0.20;;;3.70;87.10;;;;;;4900603;29;20910;-73
2021/04/11 02:57:53;;;;;;;0.25;0.25;;;3.70;87.00;;;;;;4917436;29;20115;-72
2021/04/11 03:00:23;;;;;;;0.47;0.30;;;3.80;87.00;;;;;;4899403;29;20056;-73
2021/04/11 03:02:49;;;;;;;0.40;0.40;;;3.80;86.90;;;;;;4917995;29;20454;-73
2021/04/11 03:05:18;;;;;;;0.25;0.25;;;3.80;86.80;;;;;;4900574;29;20059;-73
2021/04/11 03:07:47;;;;;;;0.20;0.20;;;3.80;86.90;;;;;;4900334;29;20131;-73
2021/04/11 03:10:27;;;;;;;0.50;0.30;;;3.70;86.90;;;;;;4917346;29;20394;-73
2021/04/11 03:12:55;;;;;;;0.30;0.30;;;3.80;87.00;;;;;;4884799;29;20512;-73
2021/04/11 03:15:23;;;;;;;0.40;0.40;;;3.80;86.90;;;;;;4900886;29;20470;-73
2021/04/11 03:17:52;;;;;;;0.38;0.38;;;3.80;87.00;;;;;;4900296;29;20039;-73
2021/04/11 03:20:31;;;;;;;0.50;0.30;;;3.80;86.90;;;;;;4917201;29;20060;-74
2021/04/11 03:23:00;;;;;;;0.13;0.13;;;3.80;87.00;;;;;;4900306;29;20040;-73
2021/04/11 03:25:27;;;;;;;0.32;0.30;;;3.80;87.00;;;;;;4917156;29;20047;-73
2021/04/11 03:28:09;;;;;;;0.30;0.30;;;3.80;87.00;;;;;;4900253;29;20421;-73
2021/04/11 03:30:54;;;;;;;0.20;0.20;;;3.90;87.00;;;;;;4900157;29;20029;-73
2021/04/11 03:33:23;;;;;;;0.43;0.35;;;3.80;86.90;;;;;;4917003;29;20486;-74
2021/04/11 03:35:50;;;;;;;0.25;0.25;;;3.80;86.90;;;;;;4917577;29;20072;-73
2021/04/11 03:38:23;;;;;;;0.40;0.32;;;3.80;87.00;;;;;;4917176;29;20043;-73
2021/04/11 03:40:54;;;;;;;0.32;0.30;;;3.80;87.00;;;;;;4916945;29;20044;-74
2021/04/11 03:43:31;;;;;;;0.10;0.10;;;3.80;86.90;;;;;;4900429;29;20040;-74
2021/04/11 03:46:04;;;;;;;0.17;0.15;;;3.80;87.00;;;;;;4916928;29;20048;-73
2021/04/11 03:48:36;;;;;;;0.10;0.10;;;3.80;87.00;;;;;;4899810;29;20199;-73
2021/04/11 03:51:09;;;;;;;0.30;0.30;;;3.90;87.00;;;;;;4917200;29;20051;-73
2021/04/11 03:54:06;;;;;;;0.28;0.28;;;3.70;87.00;;;;;;4899107;29;20045;-73
2021/04/11 03:56:38;;;;;;;0.20;0.20;;;3.80;87.10;;;;;;4916814;29;20115;-74
2021/04/11 03:59:06;;;;;;;0.10;0.10;;;3.70;87.00;;;;;;4900610;29;20039;-73
2021/04/11 04:01:41;;;;;;;0.80;0.40;;;3.80;87.00;;;;;;4916905;29;20037;-73
2021/04/11 04:04:13;;;;;;;0.30;0.30;;;3.80;87.00;;;;;;4899724;29;20059;-73
2021/04/11 04:06:45;;;;;;;0.20;0.17;;;3.80;87.00;;;;;;4900151;29;20032;-73
2021/04/11 04:09:11;;;;;;;0.20;0.20;;;3.80;87.00;;;;;;4916589;29;20043;-73
2021/04/11 04:12:07;;;;;;;0.30;0.20;;;3.80;87.00;;;;;;4916859;29;20127;-73
2021/04/11 04:14:55;;;;;;;0.82;0.32;;;3.80;87.10;;;;;;4904039;29;20390;-73
2021/04/11 04:17:37;;;;;;;0.17;0.17;;;3.80;87.10;;;;;;4884110;29;20463;-73
2021/04/11 04:20:13;;;;;;;0.10;0.10;;;3.90;87.20;;;;;;4917147;29;20091;-73
2021/04/11 04:23:05;;;;;;;0.10;0.10;;;3.90;87.00;;;;;;4899780;29;20036;-74
2021/04/11 04:25:49;;;;;;;0.10;0.10;;;3.90;87.10;;;;;;4903497;29;20043;-73
2021/04/11 04:28:39;;;;;;;0.03;0.03;;;3.90;87.00;;;;;;4916293;29;20040;-73
2021/04/11 04:31:26;;;;;;;0.20;0.20;;;3.80;87.00;;;;;;4902497;29;20036;-73
2021/04/11 04:34:06;;;;;;;0.10;0.10;;;3.90;87.00;;;;;;4916847;29;20055;-73
2021/04/11 04:36:45;;;;;;;0.10;0.10;;;3.90;87.00;;;;;;4899994;29;20071;-73
2021/04/11 04:39:35;;;;;;;0.35;0.30;;;3.90;87.00;;;;;;4900499;29;20119;-73
2021/04/11 04:42:14;;;;;;;0.20;0.20;;;3.90;87.00;;;;;;4898854;29;20450;-73
2021/04/11 04:44:54;;;;;;;0.10;0.10;;;3.90;87.00;;;;;;4916354;29;20032;-73
2021/04/11 04:47:40;;;;;;;0.10;0.10;;;4.00;87.10;;;;;;4916103;29;20100;-72
2021/04/11 04:50:13;;;;;;;0.22;0.22;;;4.00;87.10;;;;;;4900155;29;20036;-73
2021/04/11 04:52:43;;;;;;;0.10;0.10;;;4.00;87.00;;;;;;4884317;29;20459;-73
2021/04/11 04:55:18;;;;;;;0.20;0.20;;;4.00;87.00;;;;;;4914704;29;20044;-73
2021/04/11 04:57:50;;;;;;;0.20;0.20;;;4.00;87.00;;;;;;4899305;29;20044;-73
2021/04/11 05:00:21;;;;;;;0.20;0.20;;;4.00;87.00;;;;;;4916210;29;20047;-73
2021/04/11 05:03:04;;;;;;;0.13;0.13;;;4.00;87.00;;;;;;4899081;29;20079;-73
2021/04/11 05:05:31;;;;;;;0.13;0.13;;;4.00;87.00;;;;;;4899193;29;20044;-73
2021/04/11 05:08:08;;;;;;;0.10;0.10;;;4.00;87.00;;;;;;4915980;29;20087;-74
2021/04/11 05:10:46;;;;;;;0.10;0.10;;;4.00;87.00;;;;;;4898812;29;20036;-73
2021/04/11 05:13:20;;;;;;;0.20;0.20;;;4.00;87.00;;;;;;4883257;29;20028;-73
2021/04/11 05:16:03;;;;;;;0.20;0.20;;;4.10;87.10;;;;;;4916127;29;20108;-73
2021/04/11 05:18:39;;;;;;;0.20;0.20;;;4.10;87.00;;;;;;4915769;29;20040;-73
2021/04/11 05:21:13;;;;;;;0.10;0.10;;;4.10;87.10;;;;;;4898695;29;20052;-73
2021/04/11 05:23:53;;;;;;;0.20;0.20;;;4.10;87.00;;;;;;4915671;29;20071;-73
2021/04/11 05:26:31;;;;;;;0.30;0.20;;;4.10;87.00;;;;;;4899251;29;20036;-73
2021/04/11 05:29:06;;;;;;;0.32;0.20;;;4.10;87.00;;;;;;4916043;29;20052;-73
2021/04/11 05:31:44;;;;;;;0.22;0.15;;;4.10;87.00;;;;;;4915550;29;20032;-75
2021/04/11 05:34:14;;;;;;;0.20;0.20;;;4.10;87.00;;;;;;4898656;29;20115;-73
2021/04/11 05:36:55;;;;;;;0.20;0.20;;;4.10;87.00;;;;;;4898424;29;20063;-74
2021/04/11 05:39:41;;;;;;;0.20;0.10;;;4.10;87.00;;;;;;4915992;29;20083;-74
2021/04/11 05:42:32;;;;;;;0.10;0.10;;;4.10;87.00;;;;;;4915371;29;20060;-73
2021/04/11 05:45:07;;;;;;;0.30;0.10;;;4.20;87.10;;;;;;4915455;29;20051;-73
2021/04/11 05:47:52;;;;;;;0.30;0.30;;;4.20;86.90;;;;;;4883881;29;20067;-73
2021/04/11 05:50:23;;;;;;;0.10;0.10;;;4.20;87.00;;;;;;4898755;29;20044;-73
2021/04/11 05:52:57;;;;;;;0.20;0.17;;;4.10;86.90;;;;;;4898601;29;20037;-73
2021/04/11 05:55:26;;;;;;;0.10;0.10;;;4.20;86.90;;;;;;4914568;29;20099;-74
2021/04/11 05:57:58;;;;;;;0.20;0.20;;;4.20;87.00;;;;;;4898522;29;20036;-74
2021/04/11 06:00:35;;;;;;;0.70;0.50;;;4.20;87.00;;;;;;4883580;29;20044;-73
2021/04/11 06:03:06;;;;;;;0.20;0.20;;;4.20;87.00;;;;;;4915466;29;20059;-74
2021/04/11 06:05:42;;;;;;;0.17;0.17;;;4.20;86.90;;;;;;4898557;29;20071;-74
2021/04/11 06:08:22;;;;;;;0.40;0.40;;;4.20;86.90;;;;;;4898334;29;20055;-73
2021/04/11 06:10:59;;;;;;;0.32;0.22;;;4.20;86.90;;;;;;4915876;29;20048;-74
2021/04/11 06:14:04;;;;;;;0.10;0.10;;;4.20;87.00;;;;;;4915416;29;20047;-74
2021/04/11 06:16:32;;;;;;;0.50;0.20;;;4.20;87.10;;;;;;4917122;29;20116;-74
2021/04/11 06:19:01;;;;;;;0.40;0.30;;;4.20;87.00;;;;;;4886739;29;20035;-72
2021/04/11 06:21:51;;;;;;;0.50;0.40;;;4.20;87.00;;;;;;4886113;29;20386;-72
2021/04/11 06:24:31;;;;;;;0.20;0.20;;;4.20;87.10;;;;;;4918698;29;20416;-73
2021/04/11 06:27:16;;;;;;;0.20;0.20;;;4.20;87.00;;;;;;4901851;29;20060;-72
2021/04/11 06:29:55;;;;;;;0.30;0.30;;;4.20;86.90;;;;;;4901591;29;20032;-72
2021/04/11 06:32:23;;;;;;;1.30;0.30;;;4.30;86.90;;;;;;4885940;29;20557;-72
2021/04/11 06:34:56;;;;;;;0.22;0.20;;;4.30;86.90;;;;;;4918224;29;20040;-72
2021/04/11 06:37:22;;;;;;;0.32;0.20;;;4.40;86.80;;;;;;4901320;29;20393;-73
2021/04/11 06:39:50;;;;;;;0.20;0.20;;;4.30;86.80;;;;;;4901568;29;20036;-73
2021/04/11 06:42:34;;;;;;;0.30;0.30;;;4.30;86.80;;;;;;4901118;29;20107;-72
2021/04/11 06:45:12;;;;;;;0.40;0.17;;;4.30;86.80;;;;;;4901168;29;20762;-73
2021/04/11 06:48:12;;;;;;;0.15;0.15;;;4.40;86.80;;;;;;4901176;29;20426;-73
2021/04/11 06:51:04;;;;;;;0.20;0.20;;;4.50;86.80;;;;;;4903941;29;20043;-73
2021/04/11 06:53:53;;;;;;;0.43;0.20;;;4.50;86.70;;;;;;4903944;29;20060;-73
2021/04/11 06:56:52;;;;;;;0.13;0.13;;;4.40;86.50;;;;;;4918170;29;20036;-73
2021/04/11 06:59:32;;;;;;;0.65;0.40;;;4.40;86.50;;;;;;4917527;29;20435;-73
2021/04/11 07:02:04;;;;;;;0.35;0.20;;;4.50;86.50;;;;;;4886190;29;20044;-73
2021/04/11 07:04:54;;;;;;;0.28;0.28;;;4.60;86.50;;;;;;4900952;29;20498;-72
2021/04/11 07:07:50;;;;;;;0.10;0.10;;;4.70;86.30;;;;;;4917665;29;20048;-73
2021/04/11 07:10:26;;;;;;;0.08;0.05;;;4.70;86.00;;;;;;4886777;29;20513;-73
2021/04/11 07:13:29;;;;;;;0.10;0.10;;;4.80;85.90;;;;;;4901310;29;20036;-72
2021/04/11 07:16:26;;;;;;;0.20;0.20;;;4.90;85.80;;;;;;4917907;29;20040;-73
2021/04/11 07:19:13;;;;;;;0.15;0.10;;;4.90;85.80;;;;;;4889347;29;20525;-72
2021/04/11 07:22:13;;;;;;;0.60;0.30;;;4.80;85.70;;;;;;4901484;29;20040;-72
2021/04/11 07:25:14;;;;;;;0.30;0.20;;;4.90;85.80;;;;;;4900735;29;20491;-72
2021/04/11 07:28:14;;;;;;;0.50;0.20;;;4.90;85.70;;;;;;4917269;29;20112;-72
2021/04/11 07:31:07;;;;;;;0.22;0.20;;;5.00;85.80;;;;;;4903477;29;20867;-72
2021/04/11 07:33:54;;;;;;;0.30;0.20;;;5.00;85.60;;;;;;4917488;29;20039;-72
2021/04/11 07:36:47;;;;;;;0.57;0.22;;;5.00;85.60;;;;;;4900653;29;20051;-72
2021/04/11 07:39:44;;;;;;;0.32;0.13;;;5.10;85.50;;;;;;4900656;29;20064;-72
2021/04/11 07:42:38;;;;;;;0.15;0.15;;;5.20;85.50;;;;;;4887572;29;20458;-72
2021/04/11 07:45:35;;;;;;;0.10;0.10;;;5.10;85.40;;;;;;4903303;29;20039;-72
2021/04/11 07:48:28;;;;;;;0.40;0.30;;;5.00;85.30;;;;;;4903269;29;20466;-72
2021/04/11 07:51:28;;;;;;;0.60;0.40;;;5.00;85.40;;;;;;4917238;29;20064;-72
2021/04/11 07:54:21;;;;;;;0.80;0.10;;;4.90;85.60;;;;;;4900318;29;20040;-72
2021/04/11 07:57:09;;;;;;;0.90;0.38;;;4.90;85.70;;;;;;4917896;29;20028;-73
2021/04/11 08:00:09;;;;;;;0.85;0.30;;;5.00;85.80;;;;;;4917109;29;20040;-73
2021/04/11 08:03:04;;;;;;;0.32;0.20;;;5.00;85.70;;;;;;4917130;29;20451;-72
2021/04/11 08:05:49;;;;;;;0.68;0.40;;;5.00;85.60;;;;;;4902651;29;20036;-72
2021/04/11 08:08:29;;;;;;;0.20;0.20;;;5.00;85.50;;;;;;4901675;29;20052;-72
2021/04/11 08:11:30;;;;;;;0.55;0.30;;;5.00;85.50;;;;;;4917100;29;20037;-71
2021/04/11 08:14:24;;;;;;;0.50;0.40;;;5.10;85.60;;;;;;4917259;29;20032;-72
2021/04/11 08:17:20;;;;;;;0.15;0.15;;;4.90;85.50;;;;;;4901480;29;20099;-74
2021/04/11 08:20:04;;;;;;;0.25;0.25;;;5.10;85.60;;;;;;4901893;29;20035;-72
2021/04/11 08:23:00;;;;;;;0.32;0.30;;;5.10;85.60;;;;;;4900161;29;20140;-72
2021/04/11 08:25:38;;;;;;;0.15;0.15;;;5.00;85.40;;;;;;4916654;29;20039;-72
2021/04/11 08:28:32;;;;;;;0.28;0.22;;;5.10;85.50;;;;;;4884799;29;20131;-73
2021/04/11 08:31:17;;;;;;;0.65;0.40;;;5.10;85.40;;;;;;4883620;29;20036;-73
2021/04/11 08:34:16;;;;;;;0.30;0.30;;;5.20;85.40;;;;;;4899720;29;20040;-73
2021/04/11 08:37:14;;;;;;;0.98;0.20;;;5.20;85.20;;;;;;4917147;29;20048;-73
2021/04/11 08:40:00;;;;;;;0.45;0.32;;;5.20;85.20;;;;;;4902249;29;20453;-73
2021/04/11 08:42:41;;;;;;;0.47;0.20;;;5.20;85.10;;;;;;4886036;29;20040;-73
2021/04/11 08:45:32;;;;;;;0.10;0.10;;;5.20;85.10;;;;;;4899461;29;20059;-74
2021/04/11 08:48:23;;;;;;;0.10;0.10;;;5.30;85.10;;;;;;4902385;29;20672;-75
2021/04/11 08:50:59;;;;;;;0.20;0.20;;;5.40;85.10;;;;;;4916933;29;20040;-75
2021/04/11 08:53:33;;;;;;;0.40;0.30;;;5.40;84.80;;;;;;4899974;29;20040;-73
2021/04/11 08:56:16;;;;;;;0.10;0.10;;;5.40;84.60;;;;;;4899293;29;20036;-74
2021/04/11 08:59:00;;;;;;;0.20;0.20;;;5.40;84.70;;;;;;4899354;29;20044;-74
2021/04/11 09:02:06;;;;;;;1.05;0.57;;;5.50;84.80;;;;;;4898226;29;20041;-74
2021/04/11 09:04:38;;;;;;;0.20;0.20;;;5.60;84.60;;;;;;4901892;29;20119;-74
2021/04/11 09:07:37;;;;;;;0.30;0.30;;;5.80;84.40;;;;;;4899124;29;20048;-75
2021/04/11 09:10:19;;;;;;;0.20;0.10;;;6.00;84.00;;;;;;4829220;29;20033;-74
2021/04/11 09:13:00;;;;;;;1.58;0.40;;;6.10;83.70;;;;;;4843637;29;20038;-73
2021/04/11 09:16:00;;;;;;;0.40;0.20;;;6.20;83.40;;;;;;4858018;29;20041;-74
2021/04/11 09:18:36;;;;;;;0.20;0.20;;;6.10;83.40;;;;;;4831770;29;20046;-73
2021/04/11 09:21:24;;;;;;;0.40;0.20;;;6.10;83.50;;;;;;4834677;29;20037;-73
2021/04/11 09:24:01;;;;;;;0.20;0.20;;;6.00;83.60;;;;;;4843833;29;20080;-72
2021/04/11 09:26:46;;;;;;;0.73;0.30;;;6.10;83.70;;;;;;4858032;29;20506;-73
2021/04/11 09:29:34;;;;;;;0.50;0.20;;;6.10;83.80;;;;;;4844679;29;20057;-73
2021/04/11 09:32:35;;;;;;;0.22;0.20;;;6.10;83.80;;;;;;4857419;29;20049;-73
2021/04/11 09:35:25;;;;;;;0.10;0.10;;;6.10;83.90;;;;;;4857239;29;20144;-73
2021/04/11 09:38:09;;;;;;;0.15;0.15;;;6.20;83.80;;;;;;4844024;29;20132;-73
2021/04/11 09:40:55;;;;;;;0.20;0.20;;;6.20;83.60;;;;;;4858085;29;20835;-73
2021/04/11 09:43:52;;;;;;;0.20;0.20;;;6.30;83.60;;;;;;4898325;29;20084;-73
2021/04/11 09:46:36;;;;;;;0.75;0.20;;;6.20;83.60;;;;;;4898430;29;20041;-73
2021/04/11 09:49:28;;;;;;;0.20;0.20;;;6.30;83.60;;;;;;4882823;29;20047;-72
2021/04/11 09:52:18;;;;;;;0.73;0.20;;;6.40;83.60;;;;;;4914972;29;20494;-72
2021/04/11 09:54:49;;;;;;;0.13;0.13;;;6.50;83.30;;;;;;4915470;29;20111;-73
2021/04/11 09:57:38;;;;;;;0.15;0.15;;;6.70;82.80;;;;;;4896783;29;20032;-73
2021/04/11 10:00:21;;;;;;;0.57;0.30;;;6.70;82.50;;;;;;4898134;29;20040;-71
2021/04/11 10:03:13;;;;;;;0.30;0.30;;;6.70;82.50;;;;;;4868723;29;20570;-73
2021/04/11 10:06:09;;;;;;;0.10;0.10;;;6.70;82.50;;;;;;4900417;29;20082;-74
2021/04/11 10:08:59;;;;;;;0.60;0.20;;;6.60;82.50;;;;;;4885348;29;20075;-74
2021/04/11 10:11:59;;;;;;;0.20;0.13;;;6.60;82.60;;;;;;4915293;29;20566;-72
2021/04/11 10:14:39;;;;;;;0.20;0.20;;;6.60;82.70;;;;;;4915133;29;20050;-72
2021/04/11 10:17:32;;;;;;;0.20;0.20;;;6.60;82.70;;;;;;4883373;29;20048;-72
2021/04/11 10:20:13;;;;;;;0.15;0.15;;;6.70;82.70;;;;;;4915269;29;20087;-72
2021/04/11 10:22:42;;;;;;;;;;;6.80;82.70;;;;;;4916073;29;20120;-71
2021/04/11 10:25:28;;;;;;;0.13;0.13;;;6.80;82.30;;;;;;4898739;29;19923;-71
2021/04/11 10:28:16;;;;;;;0.13;0.13;;;6.80;82.40;;;;;;4915062;29;20044;-72
2021/04/11 10:30:46;;;;;;;0.30;0.20;;;6.90;82.40;;;;;;4887521;29;20052;-72
2021/04/11 10:33:20;;;;;;;0.10;0.10;;;7.00;82.40;;;;;;4898064;29;20854;-74
2021/04/11 10:35:56;;;;;;;0.32;0.10;;;7.10;82.00;;;;;;4882210;29;20127;-73
2021/04/11 10:38:33;;;;;;;0.20;0.20;;;7.10;81.90;;;;;;4897569;29;20487;-72
2021/04/11 10:41:21;;;;;;;0.20;0.20;;;7.10;81.80;;;;;;4914736;29;20071;-72
2021/04/11 10:44:21;;;;;;;0.82;0.30;;;6.90;82.00;;;;;;4914642;29;20443;-71
2021/04/11 10:47:09;;;;;;;0.28;0.20;;;6.70;82.70;;;;;;4900467;29;20064;-73
2021/04/11 10:50:01;;;;;;;0.40;0.10;;;6.70;83.20;;;;;;4897809;29;20595;-72
2021/04/11 10:52:41;;;;;;;0.15;0.10;;;6.70;83.20;;;;;;4914390;29;20107;-72
2021/04/11 10:55:24;;;;;;;0.55;0.20;;;6.90;83.20;;;;;;4914690;29;20034;-72
2021/04/11 10:58:24;;;;;;;0.10;0.10;;;7.00;82.90;;;;;;4915078;29;20130;-72
2021/04/11 11:01:10;;;;;;;0.22;0.22;;;7.10;82.70;;;;;;4914910;29;20127;-72
2021/04/11 11:04:05;;;;;;;0.30;0.30;;;7.30;82.40;;;;;;4916739;29;20040;-72
2021/04/11 11:07:00;;;;;;;0.88;0.30;;;7.40;82.20;;;;;;4901018;29;20060;-71
2021/04/11 11:09:33;;;;;;;1.17;0.30;;;7.60;82.00;;;;;;4918104;29;20052;-71
2021/04/11 11:12:23;;;;;;;0.30;0.20;;;7.70;81.60;;;;;;4917763;29;20446;-71
2021/04/11 11:15:12;;;;;;;0.10;0.10;;;7.70;81.30;;;;;;4918205;29;20123;-72
2021/04/11 11:17:57;;;;;;;0.13;0.10;;;7.70;81.40;;;;;;4917855;29;20096;-71
2021/04/11 11:20:41;;;;;;;0.45;0.20;;;7.70;81.50;;;;;;4901678;29;20533;-71
2021/04/11 11:23:26;;;;;;;1.98;0.45;;;7.50;81.70;;;;;;4918171;29;20040;-71
2021/04/11 11:26:14;;;;;;;0.30;0.20;;;7.40;82.00;;;;;;4917808;29;20036;-71
2021/04/11 11:29:10;;;;;;;0.43;0.20;;;7.50;82.10;;;;;;4917465;29;20115;-72
2021/04/11 11:32:16;;;;;;;0.40;0.30;;;7.30;82.00;;;;;;4887272;29;20032;-72
2021/04/11 11:34:59;;;;;;;0.30;0.30;;;7.40;82.20;;;;;;4917427;29;20055;-72
2021/04/11 11:38:05;;;;;;;0.45;0.20;;;7.50;82.00;;;;;;4884927;29;20127;-71
2021/04/11 11:41:20;;;;;;;0.80;0.20;;;7.70;81.50;;;;;;4887705;29;20946;-72
2021/04/11 11:44:17;;;;;;;0.10;0.10;;;7.70;81.30;;;;;;4855257;29;20140;-73
2021/04/11 11:47:03;;;;;;;0.20;0.20;;;7.60;81.10;;;;;;4842876;29;20038;-73
2021/04/11 11:49:46;;;;;;;0.20;0.20;;;7.60;81.20;;;;;;4827307;29;20069;-74
2021/04/11 11:52:36;;;;;;;0.40;0.10;;;7.50;81.30;;;;;;4857506;29;20404;-74
2021/04/11 11:55:14;;;;;;;0.30;0.25;;;7.50;81.70;;;;;;4842741;29;20106;-75
2021/04/11 11:57:57;;;;;;;0.20;0.20;;;7.40;81.80;;;;;;4841689;29;20037;-75
2021/04/11 12:00:30;;;;;;;1.40;0.30;;;7.40;81.50;;;;;;4828997;29;20045;-73
2021/04/11 12:03:23;;;;;;;0.65;0.20;;;7.50;81.50;;;;;;4812039;29;20504;-75
2021/04/11 12:05:59;;;;;;;0.10;0.10;;;7.60;81.30;;;;;;4845935;29;20520;-76
2021/04/11 12:08:57;;;;;;;0.20;0.20;;;7.70;80.90;;;;;;4856759;29;20049;-76
2021/04/11 12:11:43;;;;;;;0.10;0.10;;;8.00;80.70;;;;;;4830676;29;20099;-75
2021/04/11 12:14:26;;;;;;;0.85;0.30;;;8.00;80.40;;;;;;4871926;29;20041;-75
2021/04/11 12:17:11;;;;;;;0.15;0.15;;;8.20;80.30;;;;;;4899694;29;20100;-75
2021/04/11 12:20:03;;;;;;;0.15;0.15;;;8.20;79.90;;;;;;4899838;29;20044;-73
2021/04/11 12:22:51;;;;;;;0.10;0.10;;;8.30;79.80;;;;;;4901861;29;20047;-75
2021/04/11 12:25:24;;;;;;;0.25;0.20;;;8.50;79.60;;;;;;4899298;29;20509;-72
2021/04/11 12:27:52;;;;;;;0.10;0.10;;;8.60;79.10;;;;;;4898620;29;20495;-74
2021/04/11 12:30:29;;;;;;;0.22;0.13;;;8.70;78.90;;;;;;4899421;29;20100;-73
2021/04/11 12:33:06;;;;;;;0.30;0.15;;;8.60;78.80;;;;;;4899152;29;20040;-75
2021/04/11 12:35:54;;;;;;;0.20;0.20;;;8.50;78.90;;;;;;4916194;29;20394;-77
2021/04/11 12:38:45;;;;;;;0.17;0.15;;;8.30;79.30;;;;;;4885268;29;20036;-75
2021/04/11 12:41:36;;;;;;;0.30;0.20;;;8.20;79.60;;;;;;4886577;29;20454;-75
2021/04/11 12:44:22;;;;;;;0.10;0.10;;;7.90;79.70;;;;;;4916084;29;20454;-75
2021/04/11 12:47:28;;;;;;;0.30;0.15;;;7.80;80.10;;;;;;4916212;29;20557;-75
2021/04/11 12:50:04;;;;;;;0.13;0.13;;;7.80;80.50;;;;;;4891310;29;21242;-74
2021/04/11 12:52:53;;;;;;;0.30;0.20;;;7.80;80.50;;;;;;4883323;29;20443;-75
2021/04/11 12:55:29;;;;;;;0.30;0.20;;;7.80;80.40;;;;;;4898663;29;20172;-73
2021/04/11 12:58:18;;;;;;;0.65;0.17;;;7.70;80.40;;;;;;4915852;29;20051;-75
2021/04/11 13:01:07;;;;;;;0.50;0.22;;;7.70;80.40;;;;;;4915922;29;20552;-74
2021/04/11 13:03:41;;;;;;;0.85;0.28;;;7.60;80.30;;;;;;4916096;29;20043;-75
2021/04/11 13:06:22;;;;;;;0.20;0.20;;;7.60;80.20;;;;;;4898981;29;20036;-75
2021/04/11 13:09:17;;;;;;;0.52;0.20;;;7.60;80.20;;;;;;4915953;29;20056;-75
2021/04/11 13:11:52;;;;;;;0.63;0.20;;;7.60;80.00;;;;;;4915855;29;20176;-75
2021/04/11 13:14:33;;;;;;;0.45;0.20;;;7.70;79.60;;;;;;4915840;29;20040;-75
2021/04/11 13:17:09;;;;;;;0.10;0.10;;;7.80;79.60;;;;;;4915986;29;20099;-73
2021/04/11 13:19:42;;;;;;;0.43;0.20;;;7.80;79.40;;;;;;4915878;29;20482;-74
2021/04/11 13:22:21;;;;;;;0.10;0.10;;;8.00;79.40;;;;;;4916279;29;20037;-75
2021/04/11 13:25:12;;;;;;;0.20;0.15;;;8.40;78.90;;;;;;4915595;29;20032;-74
2021/04/11 13:27:46;;;;;;;0.30;0.20;;;8.70;78.10;;;;;;4915539;29;20048;-73
2021/04/11 13:30:36;;;;;;;0.47;0.30;;;8.90;77.00;;;;;;4915518;29;20035;-73
2021/04/11 13:33:19;;;;;;;0.50;0.20;;;9.00;76.70;;;;;;4915752;29;20176;-73
2021/04/11 13:35:59;;;;;;;0.82;0.20;;;9.00;76.70;;;;;;4915490;29;20045;-73
2021/04/11 13:38:38;;;;;;;1.30;0.30;;;9.10;76.50;;;;;;4915353;29;20044;-73
2021/04/11 13:41:24;;;;;;;0.28;0.20;;;9.10;76.30;;;;;;4898602;29;20175;-73
2021/04/11 13:44:19;;;;;;;0.30;0.20;;;8.90;76.20;;;;;;4884307;29;20390;-73
2021/04/11 13:47:15;;;;;;;0.73;0.40;;;8.80;76.40;;;;;;4915334;29;20039;-73
2021/04/11 13:50:00;;;;;;;0.40;0.40;;;8.70;76.50;;;;;;4915675;29;20039;-74
2021/04/11 13:52:40;;;;;;;1.17;0.50;;;8.70;76.60;;;;;;4915457;29;20032;-73
2021/04/11 13:55:32;;;;;;;1.08;0.40;;;8.60;76.70;;;;;;4898261;29;20040;-73
2021/04/11 13:58:09;;;;;;;0.60;0.30;;;8.50;76.60;;;;;;4898074;29;20084;-73
2021/04/11 14:00:47;;;;;;;0.40;0.30;;;8.40;76.80;;;;;;4898276;29;20063;-73
2021/04/11 14:03:29;;;;;;;0.55;0.28;;;8.40;77.00;;;;;;4899114;29;20123;-73
2021/04/11 14:06:00;;;;;;;0.60;0.40;;;8.40;76.80;;;;;;4915350;29;20045;-73